createdAt,value
2023-02-17T00:01:25.260Z,101045.81
2023-02-17T00:03:53.052Z,101039.75
2023-02-17T00:06:21.361Z,101041.63
2023-02-17T00:08:49.293Z,101039.75
2023-02-17T00:11:16.927Z,101040.81
2023-02-17T00:13:44.703Z,101037.06
2023-02-17T00:16:14.313Z,101030.84
2023-02-17T00:18:41.982Z,101036.25
2023-02-17T00:21:13.540Z,101038.09
2023-02-17T00:23:41.268Z,101044.31
2023-02-17T00:26:09.057Z,101028.34
2023-02-17T00:28:36.810Z,101030.00
2023-02-17T00:31:08.025Z,101029.19
2023-02-17T00:33:37.111Z,101033.75
2023-02-17T00:36:05.920Z,101029.19
2023-02-17T00:38:33.817Z,101028.34
2023-02-17T00:41:01.509Z,101031.06
2023-02-17T00:43:29.179Z,101037.28
2023-02-17T00:45:57.021Z,101030.41
2023-02-17T00:48:24.895Z,101033.09
2023-02-17T00:50:53.906Z,101033.28
2023-02-17T00:53:21.601Z,101030.59
2023-02-17T00:55:50.136Z,101027.06
2023-02-17T00:58:17.870Z,101039.72
2023-02-17T01:00:45.726Z,101030.81
2023-02-17T01:03:13.433Z,101037.19
2023-02-17T01:05:44.332Z,101039.91
2023-02-17T01:08:13.355Z,101035.53
2023-02-17T01:10:41.297Z,101045.50
2023-02-17T01:13:09.018Z,101033.88
2023-02-17T01:15:38.130Z,101038.44
2023-02-17T01:18:05.896Z,101024.13
2023-02-17T01:20:35.680Z,101018.72
2023-02-17T01:23:03.291Z,101023.28
2023-02-17T01:25:32.416Z,101031.38
2023-02-17T01:28:00.246Z,101024.13
2023-02-17T01:30:28.006Z,101022.06
2023-02-17T01:32:55.717Z,101025.81
2023-02-17T01:35:23.329Z,101031.19
2023-02-17T01:37:50.958Z,101028.50
2023-02-17T01:40:18.647Z,101026.63
2023-02-17T01:42:47.661Z,101028.50
2023-02-17T01:45:33.748Z,101014.16
2023-02-17T01:48:02.858Z,101018.72
2023-02-17T01:50:32.217Z,101018.72
2023-02-17T01:52:59.896Z,101012.50
2023-02-17T01:55:27.605Z,101009.97
2023-02-17T01:57:57.388Z,101006.28
2023-02-17T02:00:25.166Z,101014.53
2023-02-17T02:02:52.878Z,101011.03
2023-02-17T02:05:20.757Z,101016.41
2023-02-17T02:07:48.598Z,101012.06
2023-02-17T02:10:16.466Z,101012.06
2023-02-17T02:12:45.446Z,101013.06
2023-02-17T02:15:14.995Z,101003.31
2023-02-17T02:17:44.308Z,101003.31
2023-02-17T02:20:24.696Z,100999.94
2023-02-17T02:22:57.266Z,100999.94
2023-02-17T02:25:30.543Z,100999.94
2023-02-17T02:28:00.447Z,100999.13
2023-02-17T02:30:43.936Z,100995.38
2023-02-17T02:33:15.491Z,100999.13
2023-02-17T02:35:45.763Z,100999.94
2023-02-17T02:38:14.393Z,100999.94
2023-02-17T02:40:43.236Z,100998.06
2023-02-17T02:43:10.942Z,101002.66
2023-02-17T02:45:38.648Z,101005.34
2023-02-17T02:48:06.321Z,101008.88
2023-02-17T02:50:42.116Z,101009.72
2023-02-17T02:53:20.194Z,101005.34
2023-02-17T02:55:50.549Z,101009.91
2023-02-17T02:58:18.577Z,101009.06
2023-02-17T03:00:47.800Z,101009.91
2023-02-17T03:03:16.636Z,101012.78
2023-02-17T03:05:46.788Z,101012.78
2023-02-17T03:08:16.241Z,101006.56
2023-02-17T03:10:46.050Z,101005.72
2023-02-17T03:13:13.665Z,100999.31
2023-02-17T03:15:41.412Z,101005.72
2023-02-17T03:18:08.973Z,101014.88
2023-02-17T03:20:37.216Z,101014.88
2023-02-17T03:23:06.473Z,101013.19
2023-02-17T03:25:34.079Z,101019.41
2023-02-17T03:28:01.735Z,101019.41
2023-02-17T03:30:29.531Z,101023.97
2023-02-17T03:32:57.249Z,101022.31
2023-02-17T03:35:24.936Z,101026.00
2023-02-17T03:37:52.604Z,101023.31
2023-02-17T03:40:21.693Z,101025.19
2023-02-17T03:42:49.380Z,101019.78
2023-02-17T03:45:17.215Z,101017.91
2023-02-17T03:47:44.921Z,101021.66
2023-02-17T03:50:12.661Z,101014.41
2023-02-17T03:52:40.329Z,101015.22
2023-02-17T03:55:08.020Z,101015.22
2023-02-17T03:57:37.043Z,101015.22
2023-02-17T04:00:05.566Z,101010.69
2023-02-17T04:02:33.309Z,101013.38
2023-02-17T04:05:00.944Z,101009.84
2023-02-17T04:07:28.617Z,101001.75
2023-02-17T04:09:56.317Z,101001.94
2023-02-17T04:12:23.969Z,101000.09
2023-02-17T04:14:53.000Z,100993.88
2023-02-17T04:17:20.711Z,100994.03
2023-02-17T04:19:48.360Z,101006.53
2023-02-17T04:22:16.094Z,101004.84
2023-02-17T04:24:43.927Z,101001.50
2023-02-17T04:27:11.613Z,101002.34
2023-02-17T04:29:39.287Z,101004.19
2023-02-17T04:32:08.394Z,101005.22
2023-02-17T04:34:36.107Z,101004.19
2023-02-17T04:37:03.766Z,100999.81
2023-02-17T04:39:31.475Z,100998.19
2023-02-17T04:41:59.190Z,100998.19
2023-02-17T04:44:26.858Z,101006.44
2023-02-17T04:46:54.449Z,101019.75
2023-02-17T04:49:23.901Z,101017.22
2023-02-17T04:51:51.533Z,101011.00
2023-02-17T04:54:19.154Z,101017.22
2023-02-17T04:56:46.765Z,101011.00
2023-02-17T04:59:14.439Z,101021.78
2023-02-17T05:01:42.091Z,101026.16
2023-02-17T05:04:09.724Z,101023.44
2023-02-17T05:06:38.775Z,101029.69
2023-02-17T05:09:06.506Z,101030.53
2023-02-17T05:11:34.148Z,101023.44
2023-02-17T05:14:01.845Z,101027.84
2023-02-17T05:16:29.504Z,101033.22
2023-02-17T05:18:57.217Z,101030.53
2023-02-17T05:21:24.904Z,101026.16
2023-02-17T05:23:53.979Z,101030.91
2023-02-17T05:26:21.688Z,101033.78
2023-02-17T05:28:49.276Z,101040.00
2023-02-17T05:31:16.950Z,101040.22
2023-02-17T05:33:44.663Z,101046.44
2023-02-17T05:36:12.795Z,101049.13
2023-02-17T05:38:40.600Z,101047.44
2023-02-17T05:41:09.686Z,101052.84
2023-02-17T05:43:37.453Z,101041.22
2023-02-17T05:46:05.906Z,101055.75
2023-02-17T05:48:33.868Z,101050.34
2023-02-17T05:51:01.581Z,101052.22
2023-02-17T05:53:29.280Z,101053.88
2023-02-17T05:55:56.975Z,101058.63
2023-02-17T05:58:27.305Z,101052.22
2023-02-17T06:00:55.016Z,101060.31
2023-02-17T06:03:22.716Z,101061.97
2023-02-17T06:05:50.457Z,101057.41
2023-02-17T06:08:18.201Z,101065.31
2023-02-17T06:10:45.980Z,101066.13
2023-02-17T06:13:13.633Z,101069.66
2023-02-17T06:15:42.672Z,101065.75
2023-02-17T06:18:10.365Z,101068.44
2023-02-17T06:20:38.025Z,101069.09
2023-02-17T06:23:05.748Z,101073.28
2023-02-17T06:25:33.379Z,101070.59
2023-02-17T06:28:00.985Z,101069.53
2023-02-17T06:30:28.710Z,101075.59
2023-02-17T06:32:58.301Z,101078.94
2023-02-17T06:35:26.058Z,101084.31
2023-02-17T06:37:53.796Z,101094.06
2023-02-17T06:40:21.650Z,101087.03
2023-02-17T06:42:49.333Z,101090.53
2023-02-17T06:45:17.006Z,101087.84
2023-02-17T06:47:44.671Z,101084.97
2023-02-17T06:50:15.540Z,101081.25
2023-02-17T06:52:43.354Z,101077.50
2023-02-17T06:55:11.240Z,101077.50
2023-02-17T06:57:38.941Z,101082.06
2023-02-17T07:00:07.288Z,101081.06
2023-02-17T07:02:35.022Z,101079.19
2023-02-17T07:05:02.739Z,101074.63
2023-02-17T07:07:31.786Z,101082.53
2023-02-17T07:09:59.491Z,101086.06
2023-02-17T07:12:28.442Z,101092.31
2023-02-17T07:14:56.114Z,101076.78
2023-02-17T07:17:23.830Z,101085.50
2023-02-17T07:19:51.561Z,101088.00
2023-02-17T07:22:19.158Z,101090.53
2023-02-17T07:24:48.238Z,101083.91
2023-02-17T07:27:16.453Z,101083.72
2023-02-17T07:29:44.157Z,101081.66
2023-02-17T07:32:11.927Z,101080.63
2023-02-17T07:34:39.809Z,101080.63
2023-02-17T07:37:07.556Z,101077.75
2023-02-17T07:39:35.232Z,101087.31
2023-02-17T07:42:05.214Z,101077.16
2023-02-17T07:44:33.070Z,101088.56
2023-02-17T07:47:01.026Z,101096.50
2023-02-17T07:49:28.650Z,101102.72
2023-02-17T07:51:56.430Z,101108.94
2023-02-17T07:54:24.109Z,101107.09
2023-02-17T07:56:51.848Z,101113.13
2023-02-17T07:59:20.893Z,101110.22
2023-02-17T08:01:48.986Z,101120.19
2023-02-17T08:04:17.137Z,101122.50
2023-02-17T08:06:45.497Z,101121.47
2023-02-17T08:09:30.728Z,101119.59
2023-02-17T08:12:16.360Z,101129.38
2023-02-17T08:14:45.506Z,101126.47
2023-02-17T08:17:13.295Z,101127.31
2023-02-17T08:19:48.368Z,101123.41
2023-02-17T08:22:18.728Z,101131.28
2023-02-17T08:24:46.452Z,101126.53
2023-02-17T08:27:14.484Z,101129.88
2023-02-17T08:30:02.223Z,101127.84
2023-02-17T08:32:30.692Z,101133.03
2023-02-17T08:34:58.339Z,101130.75
2023-02-17T08:37:26.032Z,101126.84
2023-02-17T08:39:53.886Z,101125.81
2023-02-17T08:42:21.628Z,101125.81
2023-02-17T08:48:23.356Z,101128.78
2023-02-17T08:50:51.632Z,101124.22
2023-02-17T08:53:19.890Z,101127.56
2023-02-17T08:55:49.787Z,101121.94
2023-02-17T08:58:18.372Z,101127.16
2023-02-17T09:00:46.148Z,101112.19
2023-02-17T09:03:14.516Z,101122.59
2023-02-17T09:05:43.524Z,101105.34
2023-02-17T09:08:11.882Z,101095.19
2023-02-17T09:10:40.269Z,101100.41
2023-02-17T09:13:07.978Z,101096.47
2023-02-17T09:15:36.253Z,101103.53
2023-02-17T09:18:03.995Z,101094.22
2023-02-17T09:20:32.462Z,101090.50
2023-02-17T09:23:01.536Z,101089.47
2023-02-17T09:25:30.479Z,101091.97
2023-02-17T09:27:59.889Z,101090.75
2023-02-17T09:30:28.447Z,101094.09
2023-02-17T09:32:56.189Z,101090.16
2023-02-17T09:35:24.640Z,101083.75
2023-02-17T09:37:52.325Z,101083.34
2023-02-17T09:40:23.126Z,101079.59
2023-02-17T09:42:50.986Z,101078.38
2023-02-17T09:45:37.557Z,101077.13
2023-02-17T09:48:07.609Z,101082.53
2023-02-17T09:50:37.054Z,101092.94
2023-02-17T09:53:05.502Z,101084.66
2023-02-17T09:55:36.298Z,101081.72
2023-02-17T09:58:04.729Z,101080.72
2023-02-17T10:00:34.734Z,101084.06
2023-02-17T10:03:03.636Z,101077.59
2023-02-17T10:05:32.841Z,101080.94
2023-02-17T10:08:02.388Z,101071.81
2023-02-17T10:10:31.834Z,101074.31
2023-02-17T10:13:01.315Z,101073.09
2023-02-17T10:15:30.569Z,101074.75
2023-02-17T10:17:58.621Z,101068.28
2023-02-17T10:20:27.702Z,101069.75
2023-02-17T10:22:56.159Z,101066.88
2023-02-17T10:25:25.992Z,101068.53
2023-02-17T10:27:55.903Z,101066.47
2023-02-17T10:30:27.873Z,101064.41
2023-02-17T10:33:02.681Z,101071.47
2023-02-17T10:35:34.614Z,101066.69
2023-02-17T10:38:03.979Z,101060.25
2023-02-17T10:40:31.735Z,101055.47
2023-02-17T10:43:01.540Z,101051.53
2023-02-17T10:45:31.881Z,101046.97
2023-02-17T10:48:01.544Z,101044.06
2023-02-17T10:50:29.875Z,101043.88
2023-02-17T10:52:57.900Z,101053.63
2023-02-17T10:55:27.116Z,101040.75
2023-02-17T10:57:56.182Z,101044.06
2023-02-17T11:00:24.221Z,101049.09
2023-02-17T11:02:53.844Z,101032.03
2023-02-17T11:05:22.132Z,101038.06
2023-02-17T11:07:50.174Z,101028.06
2023-02-17T11:10:21.965Z,101024.34
2023-02-17T11:12:50.907Z,101022.66
2023-02-17T11:15:19.274Z,101023.72
2023-02-17T11:17:47.576Z,101021.03
2023-02-17T11:20:36.260Z,101028.31
2023-02-17T11:23:10.784Z,101020.38
2023-02-17T11:25:38.968Z,101025.38
2023-02-17T11:28:07.652Z,101003.75
2023-02-17T11:30:35.582Z,101007.31
2023-02-17T11:33:12.882Z,101008.13
2023-02-17T11:35:49.319Z,101000.84
2023-02-17T11:38:17.923Z,100993.56
2023-02-17T11:40:52.842Z,100987.53
2023-02-17T11:43:21.214Z,100994.63
2023-02-17T11:45:50.979Z,100982.97
2023-02-17T11:48:29.278Z,100983.81
2023-02-17T11:50:59.354Z,100987.16
2023-02-17T11:53:27.891Z,100967.59
2023-02-17T11:56:01.686Z,100959.47
2023-02-17T11:58:31.842Z,100961.56
2023-02-17T12:01:02.405Z,100955.31
2023-02-17T12:03:36.825Z,100954.25
2023-02-17T12:06:09.366Z,100945.97
2023-02-17T12:08:39.547Z,100940.56
2023-02-17T12:11:10.593Z,100944.28
2023-02-17T12:13:40.991Z,100954.91
2023-02-17T12:16:16.569Z,100935.34
2023-02-17T12:18:51.791Z,100946.97
2023-02-17T12:21:24.238Z,100942.63
2023-02-17T12:23:59.612Z,100940.97
2023-02-17T12:26:32.697Z,100945.53
2023-02-17T12:29:03.484Z,100933.06
2023-02-17T12:31:39.735Z,100930.34
2023-02-17T12:34:08.323Z,100932.22
2023-02-17T12:36:39.639Z,100926.59
2023-02-17T12:39:14.620Z,100925.78
2023-02-17T12:41:43.126Z,100928.47
2023-02-17T12:44:11.908Z,100926.59
2023-02-17T12:46:40.112Z,100917.66
2023-02-17T12:49:11.799Z,100916.41
2023-02-17T12:51:42.357Z,100923.72
2023-02-17T12:54:13.083Z,100917.47
2023-02-17T12:56:55.451Z,100897.72
2023-02-17T12:59:24.380Z,100902.09
2023-02-17T13:01:54.324Z,100889.63
2023-02-17T13:04:24.139Z,100892.31
2023-02-17T13:06:54.558Z,100888.75
2023-02-17T13:09:26.003Z,100889.41
2023-02-17T13:11:53.688Z,100879.63
2023-02-17T13:14:26.897Z,100878.81
2023-02-17T13:16:54.613Z,100873.41
2023-02-17T13:19:29.340Z,100874.41
2023-02-17T13:21:59.650Z,100868.19
2023-02-17T13:24:34.517Z,100874.22
2023-02-17T13:27:11.635Z,100884.22
2023-02-17T13:29:39.933Z,100876.09
2023-02-17T13:32:08.148Z,100883.16
2023-02-17T13:34:36.975Z,100874.22
2023-02-17T13:37:17.419Z,100878.59
2023-02-17T13:39:46.675Z,100872.16
2023-02-17T13:42:34.378Z,100874.00
2023-02-17T13:45:02.698Z,100874.63
2023-02-17T13:47:30.689Z,100864.47
2023-02-17T13:49:59.700Z,100860.72
2023-02-17T13:52:29.009Z,100861.56
2023-02-17T13:54:57.670Z,100858.03
2023-02-17T13:57:25.973Z,100850.53
2023-02-17T13:59:54.286Z,100851.59
2023-02-17T14:02:35.348Z,100851.59
2023-02-17T14:05:07.016Z,100847.03
2023-02-17T14:07:36.444Z,100853.25
2023-02-17T14:10:04.833Z,100837.03
2023-02-17T14:12:32.622Z,100847.84
2023-02-17T14:18:33.944Z,100842.44
2023-02-17T14:21:03.391Z,100844.09
2023-02-17T14:23:42.202Z,100845.13
2023-02-17T14:26:14.253Z,100845.13
2023-02-17T14:28:41.942Z,100838.09
2023-02-17T14:31:10.991Z,100835.38
2023-02-17T14:33:38.909Z,100839.09
2023-02-17T14:36:09.792Z,100837.44
2023-02-17T14:38:38.777Z,100834.09
2023-02-17T14:41:09.919Z,100834.09
2023-02-17T14:43:37.563Z,100838.66
2023-02-17T14:46:06.376Z,100838.88
2023-02-17T14:48:34.915Z,100830.56
2023-02-17T14:51:02.568Z,100830.75
2023-02-17T14:53:31.726Z,100834.50
2023-02-17T14:56:00.237Z,100834.50
2023-02-17T14:58:30.829Z,100827.44
2023-02-17T15:00:58.573Z,100823.06
2023-02-17T15:03:27.090Z,100824.13
2023-02-17T15:05:54.901Z,100820.78
2023-02-17T15:08:24.019Z,100819.13
2023-02-17T15:10:51.621Z,100820.38
2023-02-17T15:13:20.585Z,100815.81
2023-02-17T15:15:49.824Z,100807.06
2023-02-17T15:18:18.761Z,100814.34
2023-02-17T15:20:47.044Z,100814.53
2023-02-17T15:23:16.069Z,100813.94
2023-02-17T15:25:43.744Z,100810.38
2023-02-17T15:28:13.738Z,100817.03
2023-02-17T15:31:01.677Z,100822.84
2023-02-17T15:33:31.976Z,100824.94
2023-02-17T15:35:59.641Z,100827.03
2023-02-17T15:38:27.950Z,100822.03
2023-02-17T15:40:58.770Z,100811.63
2023-02-17T15:43:29.636Z,100811.03
2023-02-17T15:45:57.326Z,100810.41
2023-02-17T15:48:26.351Z,100798.94
2023-02-17T15:50:56.165Z,100805.41
2023-02-17T15:53:24.595Z,100804.78
2023-02-17T15:55:52.395Z,100804.97
2023-02-17T15:58:21.124Z,100806.22
2023-02-17T16:00:49.948Z,100800.22
2023-02-17T16:03:18.969Z,100804.97
2023-02-17T16:05:46.717Z,100807.03
2023-02-17T16:08:16.571Z,100797.47
2023-02-17T16:10:45.645Z,100799.53
2023-02-17T16:13:15.815Z,100801.66
2023-02-17T16:15:43.485Z,100798.31
2023-02-17T16:18:12.525Z,100803.91
2023-02-17T16:20:41.055Z,100801.63
2023-02-17T16:23:08.740Z,100801.81
2023-02-17T16:25:38.890Z,100804.75
2023-02-17T16:28:06.644Z,100808.69
2023-02-17T16:30:35.572Z,100813.25
2023-02-17T16:33:03.294Z,100815.28
2023-02-17T16:35:33.933Z,100814.66
2023-02-17T16:38:02.581Z,100811.13
2023-02-17T16:40:31.484Z,100813.19
2023-02-17T16:43:00.547Z,100806.13
2023-02-17T16:45:29.505Z,100803.63
2023-02-17T16:47:58.232Z,100802.78
2023-02-17T16:50:31.960Z,100803.00
2023-02-17T16:52:59.902Z,100796.75
2023-02-17T16:55:29.398Z,100801.34
2023-02-17T16:57:57.287Z,100803.22
2023-02-17T17:00:28.887Z,100807.78
2023-02-17T17:02:57.111Z,100805.28
2023-02-17T17:05:25.471Z,100804.44
2023-02-17T17:07:53.183Z,100803.63
2023-02-17T17:10:22.157Z,100802.75
2023-02-17T17:12:49.886Z,100801.13
2023-02-17T17:15:19.029Z,100802.16
2023-02-17T17:17:48.664Z,100797.78
2023-02-17T17:20:16.994Z,100801.53
2023-02-17T17:22:46.927Z,100800.69
2023-02-17T17:25:14.650Z,100798.81
2023-02-17T17:27:43.541Z,100790.72
2023-02-17T17:30:14.494Z,100789.91
2023-02-17T17:32:43.085Z,100789.91
2023-02-17T17:35:14.328Z,100789.06
2023-02-17T17:37:42.672Z,100784.50
2023-02-17T17:40:12.586Z,100786.38
2023-02-17T17:42:41.049Z,100780.13
2023-02-17T17:45:09.107Z,100774.94
2023-02-17T17:47:49.814Z,100774.72
2023-02-17T17:50:20.094Z,100769.56
2023-02-17T17:52:48.506Z,100771.41
2023-02-17T17:55:16.181Z,100773.25
2023-02-17T17:57:45.646Z,100772.44
2023-02-17T18:00:14.342Z,100771.63
2023-02-17T18:02:42.674Z,100770.78
2023-02-17T18:05:10.361Z,100773.69
2023-02-17T18:07:40.400Z,100779.06
2023-02-17T18:10:08.560Z,100766.63
2023-02-17T18:12:36.968Z,100766.63
2023-02-17T18:15:05.369Z,100764.94
2023-02-17T18:17:33.796Z,100757.91
2023-02-17T18:20:01.498Z,100755.41
2023-02-17T18:22:30.463Z,100761.63
2023-02-17T18:24:59.491Z,100758.94
2023-02-17T18:27:28.014Z,100761.00
2023-02-17T18:29:55.889Z,100755.59
2023-02-17T18:32:25.515Z,100756.66
2023-02-17T18:34:53.586Z,100762.88
2023-02-17T18:37:21.568Z,100756.66
2023-02-17T18:39:50.993Z,100756.66
2023-02-17T18:42:19.993Z,100760.38
2023-02-17T18:44:48.988Z,100752.28
2023-02-17T18:47:16.618Z,100752.28
2023-02-17T18:49:45.666Z,100757.66
2023-02-17T18:52:14.335Z,100754.97
2023-02-17T18:54:43.656Z,100766.59
2023-02-17T18:57:11.330Z,100761.41
2023-02-17T18:59:41.990Z,100757.03
2023-02-17T19:02:29.414Z,100752.28
2023-02-17T19:04:57.875Z,100757.03
2023-02-17T19:07:25.534Z,100759.72
2023-02-17T19:09:54.539Z,100761.59
2023-02-17T19:12:22.960Z,100753.72
2023-02-17T19:14:56.148Z,100751.03
2023-02-17T19:17:28.076Z,100765.53
2023-02-17T19:19:55.789Z,100749.34
2023-02-17T19:22:25.145Z,100742.31
2023-02-17T19:24:52.993Z,100738.78
2023-02-17T19:27:20.685Z,100740.63
2023-02-17T19:29:50.102Z,100748.72
2023-02-17T19:32:19.260Z,100747.06
2023-02-17T19:34:48.038Z,100741.66
2023-02-17T19:37:15.630Z,100740.00
2023-02-17T19:39:45.725Z,100744.56
2023-02-17T19:42:13.450Z,100749.13
2023-02-17T19:44:41.893Z,100743.72
2023-02-17T19:47:09.616Z,100741.03
2023-02-17T19:49:43.738Z,100729.41
2023-02-17T19:52:11.458Z,100730.25
2023-02-17T19:54:40.126Z,100721.31
2023-02-17T19:57:07.873Z,100720.50
2023-02-17T19:59:36.662Z,100715.09
2023-02-17T20:02:04.441Z,100711.56
2023-02-17T20:04:32.144Z,100708.06
2023-02-17T20:07:02.021Z,100707.19
2023-02-17T20:09:29.724Z,100715.09
2023-02-17T20:11:59.095Z,100713.44
2023-02-17T20:14:26.749Z,100719.66
2023-02-17T20:16:57.178Z,100716.34
2023-02-17T20:19:24.814Z,100716.34
2023-02-17T20:21:53.282Z,100712.81
2023-02-17T20:24:22.337Z,100708.44
2023-02-17T20:26:52.079Z,100704.09
2023-02-17T20:29:19.828Z,100717.56
2023-02-17T20:31:48.459Z,100706.78
2023-02-17T20:34:23.020Z,100706.78
2023-02-17T20:36:51.568Z,100700.56
2023-02-17T20:39:21.786Z,100705.97
2023-02-17T20:41:51.647Z,100708.84
2023-02-17T20:44:19.419Z,100701.56
2023-02-17T20:46:48.378Z,100696.41
2023-02-17T20:49:17.591Z,100696.41
2023-02-17T20:51:46.512Z,100691.00
2023-02-17T20:54:14.142Z,100688.50
2023-02-17T20:56:43.060Z,100688.31
2023-02-17T20:59:12.912Z,100686.63
2023-02-17T21:01:43.254Z,100677.72
2023-02-17T21:04:11.051Z,100673.16
2023-02-17T21:06:40.446Z,100667.75
2023-02-17T21:11:36.362Z,100658.81
2023-02-17T21:14:04.027Z,100656.13
2023-02-17T21:16:33.089Z,100660.69
2023-02-17T21:19:01.694Z,100658.00
2023-02-17T21:21:29.522Z,100658.19
2023-02-17T21:23:57.922Z,100664.44
2023-02-17T21:26:25.646Z,100668.97
2023-02-17T21:28:53.970Z,100670.84
2023-02-17T21:31:21.611Z,100678.94
2023-02-17T21:33:51.396Z,100676.25
2023-02-17T21:36:19.687Z,100678.13
2023-02-17T21:38:48.320Z,100678.13
2023-02-17T21:41:16.479Z,100669.19
2023-02-17T21:44:03.312Z,100665.69
2023-02-17T21:47:08.047Z,100665.69
2023-02-17T21:49:39.147Z,100663.19
2023-02-17T21:52:08.525Z,100655.09
2023-02-17T21:54:37.061Z,100650.75
2023-02-17T21:57:04.788Z,100650.75
2023-02-17T21:59:33.249Z,100657.16
2023-02-17T22:02:00.972Z,100644.72
2023-02-17T22:04:29.442Z,100646.59
2023-02-17T22:06:58.500Z,100652.81
2023-02-17T22:09:26.924Z,100643.66
2023-02-17T22:11:55.613Z,100649.06
2023-02-17T22:14:23.962Z,100642.84
2023-02-17T22:16:51.637Z,100649.06
2023-02-17T22:19:20.571Z,100653.63
2023-02-17T22:21:48.278Z,100642.00
2023-02-17T22:24:17.969Z,100649.06
2023-02-17T22:26:45.578Z,100649.06
2023-02-17T22:29:13.948Z,100650.09
2023-02-17T22:31:41.745Z,100659.03
2023-02-17T22:34:10.790Z,100663.59
2023-02-17T22:36:38.541Z,100652.81
2023-02-17T22:39:07.322Z,100659.03
2023-02-17T22:41:36.428Z,100659.25
2023-02-17T22:44:04.777Z,100657.56
2023-02-17T22:46:52.422Z,100667.34
2023-02-17T22:49:21.412Z,100660.25
2023-02-17T22:51:49.827Z,100668.56
2023-02-17T22:54:18.207Z,100650.94
2023-02-17T22:56:47.289Z,100655.28
2023-02-17T22:59:16.176Z,100653.63
2023-02-17T23:01:43.779Z,100651.94
2023-02-17T23:04:12.740Z,100653.63
2023-02-17T23:06:41.040Z,100653.63
2023-02-17T23:09:09.091Z,100659.00
2023-02-17T23:11:54.337Z,100646.13
2023-02-17T23:14:24.853Z,100656.50
2023-02-17T23:17:09.541Z,100653.00
2023-02-17T23:19:37.246Z,100648.41
2023-02-17T23:22:05.651Z,100657.56
2023-02-17T23:24:33.341Z,100651.94
2023-02-17T23:27:03.357Z,100644.91
2023-02-17T23:29:32.551Z,100651.94
2023-02-17T23:32:00.843Z,100643.03
2023-02-17T23:34:29.211Z,100641.16
2023-02-17T23:36:57.005Z,100639.50
2023-02-17T23:39:24.644Z,100642.84
2023-02-17T23:41:52.241Z,100635.75
2023-02-17T23:44:19.945Z,100641.16
2023-02-17T23:46:49.063Z,100646.53
2023-02-17T23:49:17.889Z,100647.38
2023-02-17T23:51:46.917Z,100639.28
2023-02-17T23:54:14.657Z,100634.75
2023-02-17T23:56:42.345Z,100648.22
2023-02-17T23:59:10.331Z,100647.38
